Time;durP1;ratioP1;P1;durP2;ratioP2;P2;SDS_P1;SDS_P2;PMS_P1;PMS_P2;Temp;Humidity;BMP_temperature;BMP_pressure;BME280_temperature;BME280_humidity;BME280_pressure;Samples;Min_cycle;Max_cycle;Signal;HPM_P1;HPM_P2
2022/03/31 00:00:49;;;;;;;1.17;1.17;;;;;;;;;;6149587;23;20479;-60
2022/03/31 00:03:15;;;;;;;0.80;0.80;;;;;;;;;;6150481;23;20002;-60
2022/03/31 00:05:41;;;;;;;1.40;1.33;;;;;;;;;;6149898;23;20002;-59
2022/03/31 00:08:08;;;;;;;3.13;2.83;;;;;;;;;;6151178;23;20009;-60
2022/03/31 00:10:37;;;;;;;0.00;0.00;;;;;;;;;;6150733;23;20076;-60
2022/03/31 00:13:04;;;;;;;4.88;2.20;;;;;;;;;;6150880;23;20396;-60
2022/03/31 00:15:30;;;;;;;0.00;0.00;;;;;;;;;;6150610;23;20029;-59
2022/03/31 00:17:58;;;;;;;0.00;0.00;;;;;;;;;;6150834;23;20025;-60
2022/03/31 00:20:24;;;;;;;0.00;0.00;;;;;;;;;;6152258;23;20085;-59
2022/03/31 00:22:49;;;;;;;0.85;0.77;;;;;;;;;;6152532;23;20025;-60
2022/03/31 00:25:14;;;;;;;0.00;0.00;;;;;;;;;;6152932;23;20002;-60
2022/03/31 00:27:40;;;;;;;0.00;0.00;;;;;;;;;;6152511;23;20014;-60
2022/03/31 00:30:07;;;;;;;0.00;0.00;;;;;;;;;;6152465;23;20017;-61
2022/03/31 00:32:32;;;;;;;0.10;0.10;;;;;;;;;;6151788;23;20001;-61
2022/03/31 00:34:57;;;;;;;0.00;0.00;;;;;;;;;;6152217;23;20152;-61
2022/03/31 00:37:23;;;;;;;0.10;0.10;;;;;;;;;;6152663;23;20080;-61
2022/03/31 00:39:48;;;;;;;0.38;0.38;;;;;;;;;;6152337;23;20423;-60
2022/03/31 00:42:15;;;;;;;0.00;0.00;;;;;;;;;;6152989;23;20116;-60
2022/03/31 00:44:40;;;;;;;0.00;0.00;;;;;;;;;;6151968;23;20005;-60
2022/03/31 00:47:07;;;;;;;0.00;0.00;;;;;;;;;;6152668;23;20005;-59
2022/03/31 00:49:34;;;;;;;0.00;0.00;;;;;;;;;;6152117;23;20416;-61
2022/03/31 00:51:59;;;;;;;0.00;0.00;;;;;;;;;;6152651;23;19993;-59
2022/03/31 00:54:25;;;;;;;0.03;0.03;;;;;;;;;;6152591;23;20039;-60
2022/03/31 00:56:51;;;;;;;0.00;0.00;;;;;;;;;;6152170;23;19998;-60
2022/03/31 00:59:17;;;;;;;0.05;0.05;;;;;;;;;;6152660;23;20013;-60
2022/03/31 01:01:43;;;;;;;0.00;0.00;;;;;;;;;;6152134;23;20009;-60
2022/03/31 01:04:09;;;;;;;0.00;0.00;;;;;;;;;;6151880;23;20002;-60
2022/03/31 01:06:34;;;;;;;0.00;0.00;;;;;;;;;;6151772;23;20092;-60
2022/03/31 01:08:59;;;;;;;0.00;0.00;;;;;;;;;;6152541;23;19997;-61
2022/03/31 01:11:25;;;;;;;1.08;1.08;;;;;;;;;;6152617;23;20096;-61
2022/03/31 01:13:51;;;;;;;0.00;0.00;;;;;;;;;;6151920;23;20043;-60
2022/03/31 01:16:16;;;;;;;0.47;0.47;;;;;;;;;;6152454;23;20005;-61
2022/03/31 01:18:41;;;;;;;0.00;0.00;;;;;;;;;;6151880;23;19998;-61
2022/03/31 01:21:06;;;;;;;0.00;0.00;;;;;;;;;;6152525;23;19993;-60
2022/03/31 01:23:31;;;;;;;0.00;0.00;;;;;;;;;;6151749;23;19997;-60
2022/03/31 01:25:57;;;;;;;2.63;0.88;;;;;;;;;;6152629;23;19997;-60
2022/03/31 01:28:22;;;;;;;0.00;0.00;;;;;;;;;;6152369;23;20002;-59
2022/03/31 01:30:47;;;;;;;0.55;0.55;;;;;;;;;;6150917;23;20453;-60
2022/03/31 01:33:14;;;;;;;0.00;0.00;;;;;;;;;;6151994;23;19997;-60
2022/03/31 01:35:39;;;;;;;0.00;0.00;;;;;;;;;;6151946;23;20025;-60
2022/03/31 01:38:04;;;;;;;2.17;2.13;;;;;;;;;;6152491;23;20403;-56
2022/03/31 01:40:29;;;;;;;1.00;1.00;;;;;;;;;;6153453;23;20008;-53
2022/03/31 01:42:55;;;;;;;0.00;0.00;;;;;;;;;;6153559;23;20001;-55
2022/03/31 01:45:21;;;;;;;0.00;0.00;;;;;;;;;;6153381;23;20368;-55
2022/03/31 01:47:47;;;;;;;0.00;0.00;;;;;;;;;;6152462;23;20001;-56
2022/03/31 01:50:12;;;;;;;0.10;0.10;;;;;;;;;;6153669;23;19994;-55
2022/03/31 01:52:38;;;;;;;0.10;0.10;;;;;;;;;;6152841;23;20008;-56
2022/03/31 01:55:03;;;;;;;0.00;0.00;;;;;;;;;;6153187;23;20419;-55
2022/03/31 01:57:29;;;;;;;0.17;0.17;;;;;;;;;;6152837;23;20060;-56
2022/03/31 01:59:54;;;;;;;0.00;0.00;;;;;;;;;;6152736;23;20005;-56
2022/03/31 02:02:20;;;;;;;0.25;0.25;;;;;;;;;;6153358;23;20333;-56
2022/03/31 02:04:46;;;;;;;0.10;0.10;;;;;;;;;;6126351;23;20005;-56
2022/03/31 02:07:11;;;;;;;3.60;2.92;;;;;;;;;;6153141;23;20027;-56
2022/03/31 02:09:37;;;;;;;1.85;1.77;;;;;;;;;;6152383;23;20032;-56
2022/03/31 02:12:02;;;;;;;1.70;1.65;;;;;;;;;;6153553;23;20044;-54
2022/03/31 02:14:28;;;;;;;3.83;1.65;;;;;;;;;;6152918;23;20060;-52
2022/03/31 02:16:55;;;;;;;3.72;1.95;;;;;;;;;;6152925;23;20363;-55
2022/03/31 02:19:21;;;;;;;1.00;1.00;;;;;;;;;;6152512;23;20040;-60
2022/03/31 02:21:46;;;;;;;0.00;0.00;;;;;;;;;;6151119;23;20010;-60
2022/03/31 02:24:12;;;;;;;1.85;1.27;;;;;;;;;;6151403;23;20008;-61
2022/03/31 02:26:38;;;;;;;0.77;0.77;;;;;;;;;;6150991;23;20431;-59
2022/03/31 02:29:03;;;;;;;1.65;1.55;;;;;;;;;;6150962;23;20080;-61
2022/03/31 02:31:29;;;;;;;0.00;0.00;;;;;;;;;;6151317;23;20009;-60
2022/03/31 02:33:56;;;;;;;1.23;1.23;;;;;;;;;;6151361;23;20008;-60
2022/03/31 02:36:21;;;;;;;1.83;1.73;;;;;;;;;;6151598;23;19993;-59
2022/03/31 02:38:46;;;;;;;1.33;1.23;;;;;;;;;;6151017;23;20052;-58
2022/03/31 02:41:11;;;;;;;3.50;3.08;;;;;;;;;;6151454;23;19997;-59
2022/03/31 02:43:37;;;;;;;3.45;3.10;;;;;;;;;;6150896;23;19994;-60
2022/03/31 02:46:02;;;;;;;5.22;4.70;;;;;;;;;;6151163;23;20056;-60
2022/03/31 02:48:27;;;;;;;2.42;2.17;;;;;;;;;;6151319;23;20005;-60
2022/03/31 02:50:52;;;;;;;2.03;1.77;;;;;;;;;;6150833;23;19998;-59
2022/03/31 02:56:02;;;;;;;0.65;0.65;;;;;;;;;;6151314;23;20012;-60
2022/03/31 02:58:27;;;;;;;1.33;1.27;;;;;;;;;;6150485;23;20331;-59
2022/03/31 03:00:52;;;;;;;1.48;1.40;;;;;;;;;;6151129;23;20005;-61
2022/03/31 03:03:19;;;;;;;3.03;2.63;;;;;;;;;;6151221;23;20005;-60
2022/03/31 03:05:45;;;;;;;0.40;0.30;;;;;;;;;;6150668;23;20316;-60
2022/03/31 03:08:11;;;;;;;4.47;2.53;;;;;;;;;;6151375;23;19998;-60
2022/03/31 03:10:37;;;;;;;1.88;1.65;;;;;;;;;;6150999;23;20009;-60
2022/03/31 03:13:02;;;;;;;1.55;1.35;;;;;;;;;;6151537;23;20404;-60
2022/03/31 03:15:27;;;;;;;2.35;2.22;;;;;;;;;;6151502;23;20031;-60
2022/03/31 03:17:53;;;;;;;2.83;2.63;;;;;;;;;;6150487;23;20001;-60
2022/03/31 03:20:24;;;;;;;1.20;0.52;;;;;;;;;;6151116;23;20447;-60
2022/03/31 03:22:50;;;;;;;0.25;0.25;;;;;;;;;;6151190;23;20489;-60
2022/03/31 03:25:17;;;;;;;2.10;2.00;;;;;;;;;;6151095;23;20084;-60
2022/03/31 03:27:43;;;;;;;3.30;3.03;;;;;;;;;;6149715;23;19998;-61
2022/03/31 03:30:09;;;;;;;2.63;2.53;;;;;;;;;;6150917;23;20028;-60
2022/03/31 03:32:36;;;;;;;0.63;0.13;;;;;;;;;;6150286;23;20073;-60
2022/03/31 03:35:02;;;;;;;0.35;0.35;;;;;;;;;;6150893;23;20281;-60
2022/03/31 03:37:27;;;;;;;0.00;0.00;;;;;;;;;;6150884;23;19998;-60
2022/03/31 03:39:53;;;;;;;0.20;0.20;;;;;;;;;;6150470;23;20332;-61
2022/03/31 03:42:18;;;;;;;0.20;0.20;;;;;;;;;;6151186;23;20068;-59
2022/03/31 03:44:43;;;;;;;0.28;0.28;;;;;;;;;;6150793;23;20025;-59
2022/03/31 03:47:11;;;;;;;0.00;0.00;;;;;;;;;;6151272;23;19998;-60
2022/03/31 03:49:36;;;;;;;0.43;0.43;;;;;;;;;;6150411;23;20001;-59
2022/03/31 03:52:02;;;;;;;0.00;0.00;;;;;;;;;;6151443;23;20048;-60
2022/03/31 03:54:27;;;;;;;0.05;0.05;;;;;;;;;;6152053;23;19990;-59
2022/03/31 03:56:52;;;;;;;2.85;2.45;;;;;;;;;;6152231;23;20543;-59
2022/03/31 03:59:18;;;;;;;2.65;1.15;;;;;;;;;;6153002;23;20013;-60
2022/03/31 04:01:43;;;;;;;4.95;1.38;;;;;;;;;;6152457;23;20025;-60
2022/03/31 04:04:08;;;;;;;0.00;0.00;;;;;;;;;;6152392;23;20001;-59
2022/03/31 04:06:33;;;;;;;3.13;2.65;;;;;;;;;;6152087;23;20080;-60
2022/03/31 04:08:59;;;;;;;0.00;0.00;;;;;;;;;;6152762;23;19997;-60
2022/03/31 04:11:24;;;;;;;1.88;1.17;;;;;;;;;;6152716;23;20032;-59
2022/03/31 04:13:49;;;;;;;1.10;1.10;;;;;;;;;;6152351;23;20048;-60
2022/03/31 04:16:15;;;;;;;1.45;0.95;;;;;;;;;;6152728;23;20025;-59
2022/03/31 04:18:40;;;;;;;0.10;0.10;;;;;;;;;;6152225;23;20013;-59
2022/03/31 04:21:05;;;;;;;2.08;1.45;;;;;;;;;;6152553;23;20497;-60
2022/03/31 04:23:30;;;;;;;1.35;1.35;;;;;;;;;;6126144;23;20001;-61
2022/03/31 04:25:55;;;;;;;0.00;0.00;;;;;;;;;;6151563;23;20005;-61
2022/03/31 04:28:24;;;;;;;2.75;2.55;;;;;;;;;;6152613;23;20327;-60
2022/03/31 04:30:49;;;;;;;2.72;2.10;;;;;;;;;;6152013;23;20375;-60
2022/03/31 04:33:14;;;;;;;1.55;1.45;;;;;;;;;;6152261;23;19994;-59
2022/03/31 04:35:39;;;;;;;2.83;1.88;;;;;;;;;;6152256;23;20044;-59
2022/03/31 04:38:04;;;;;;;0.00;0.00;;;;;;;;;;6152572;23;20265;-60
2022/03/31 04:40:30;;;;;;;0.25;0.25;;;;;;;;;;6152595;23;19998;-59
2022/03/31 04:42:55;;;;;;;0.00;0.00;;;;;;;;;;6152156;23;20005;-60
2022/03/31 04:45:23;;;;;;;0.80;0.80;;;;;;;;;;6152475;23;20111;-61
2022/03/31 04:47:49;;;;;;;0.00;0.00;;;;;;;;;;6152029;23;20081;-60
2022/03/31 04:50:14;;;;;;;0.00;0.00;;;;;;;;;;6151676;23;20363;-60
2022/03/31 04:52:39;;;;;;;0.30;0.30;;;;;;;;;;6151419;23;20474;-60
2022/03/31 04:55:05;;;;;;;0.47;0.47;;;;;;;;;;6151925;23;19997;-61
2022/03/31 04:57:30;;;;;;;0.10;0.10;;;;;;;;;;6152540;23;20029;-61
2022/03/31 04:59:55;;;;;;;1.00;0.98;;;;;;;;;;6151815;23;20005;-61
2022/03/31 05:02:20;;;;;;;1.73;1.63;;;;;;;;;;6152403;23;20080;-61
2022/03/31 05:04:46;;;;;;;0.00;0.00;;;;;;;;;;6151312;23;20076;-60
2022/03/31 05:07:11;;;;;;;1.85;1.45;;;;;;;;;;6125233;23;20072;-60
2022/03/31 05:09:36;;;;;;;1.27;1.27;;;;;;;;;;6151392;23;20001;-60
2022/03/31 05:12:01;;;;;;;1.20;1.20;;;;;;;;;;6152481;23;20359;-61
2022/03/31 05:14:27;;;;;;;0.00;0.00;;;;;;;;;;6152227;23;20004;-61
2022/03/31 05:16:52;;;;;;;0.57;0.57;;;;;;;;;;6151390;23;20001;-61
2022/03/31 05:19:17;;;;;;;0.00;0.00;;;;;;;;;;6151802;23;20013;-60
2022/03/31 05:21:43;;;;;;;2.50;2.30;;;;;;;;;;6151178;23;20343;-61
2022/03/31 05:24:08;;;;;;;1.30;0.55;;;;;;;;;;6151971;23;20080;-61
2022/03/31 05:26:33;;;;;;;1.77;0.45;;;;;;;;;;6151882;23;20037;-60
2022/03/31 05:28:58;;;;;;;0.00;0.00;;;;;;;;;;6151263;23;20080;-61
2022/03/31 05:31:23;;;;;;;0.00;0.00;;;;;;;;;;6152469;23;20013;-60
2022/03/31 05:33:49;;;;;;;2.40;2.30;;;;;;;;;;6151036;23;20005;-61
2022/03/31 05:36:14;;;;;;;1.02;1.02;;;;;;;;;;6151726;23;20024;-61
2022/03/31 05:38:40;;;;;;;0.00;0.00;;;;;;;;;;6151390;23;19998;-60
2022/03/31 05:41:05;;;;;;;1.17;1.17;;;;;;;;;;6151756;23;20001;-61
2022/03/31 05:43:30;;;;;;;4.35;2.72;;;;;;;;;;6151952;23;20052;-61
2022/03/31 05:45:55;;;;;;;0.00;0.00;;;;;;;;;;6151549;23;19993;-60
2022/03/31 05:48:21;;;;;;;0.35;0.35;;;;;;;;;;6151568;23;20084;-61
2022/03/31 05:50:46;;;;;;;0.68;0.68;;;;;;;;;;6150636;23;19994;-62
2022/03/31 05:53:13;;;;;;;9.65;2.05;;;;;;;;;;6152013;23;20343;-60
2022/03/31 05:55:38;;;;;;;0.00;0.00;;;;;;;;;;6124813;23;20475;-60
2022/03/31 05:58:03;;;;;;;0.98;0.98;;;;;;;;;;6151602;23;20037;-61
2022/03/31 06:00:28;;;;;;;0.90;0.30;;;;;;;;;;6151862;23;20352;-60
2022/03/31 06:02:55;;;;;;;0.00;0.00;;;;;;;;;;6151475;23;20004;-60
2022/03/31 06:05:20;;;;;;;3.55;3.28;;;;;;;;;;6151846;23;20308;-60
2022/03/31 06:07:46;;;;;;;3.15;3.00;;;;;;;;;;6151172;23;20001;-60
2022/03/31 06:10:11;;;;;;;0.00;0.00;;;;;;;;;;6151999;23;20005;-60
2022/03/31 06:12:37;;;;;;;1.58;1.55;;;;;;;;;;6151836;23;20004;-60
2022/03/31 06:15:03;;;;;;;0.45;0.45;;;;;;;;;;6151372;23;19997;-60
2022/03/31 06:17:29;;;;;;;0.77;0.63;;;;;;;;;;6151710;23;20544;-61
2022/03/31 06:19:54;;;;;;;1.90;1.75;;;;;;;;;;6149761;23;20077;-61
2022/03/31 06:22:19;;;;;;;4.93;3.83;;;;;;;;;;6151632;23;19998;-59
2022/03/31 06:24:44;;;;;;;0.50;0.50;;;;;;;;;;6150900;23;20466;-59
2022/03/31 06:27:11;;;;;;;6.18;2.97;;;;;;;;;;6151594;23;20001;-61
2022/03/31 06:29:36;;;;;;;6.93;3.20;;;;;;;;;;6150771;23;20023;-60
2022/03/31 06:32:02;;;;;;;2.30;1.92;;;;;;;;;;6151243;23;20084;-60
2022/03/31 06:34:27;;;;;;;7.13;2.17;;;;;;;;;;6151778;23;19998;-61
2022/03/31 06:36:54;;;;;;;1.80;1.13;;;;;;;;;;6150906;23;20029;-60
2022/03/31 06:39:19;;;;;;;0.03;0.03;;;;;;;;;;6125384;23;20025;-60
2022/03/31 06:41:44;;;;;;;2.28;1.40;;;;;;;;;;6150731;23;20016;-60
2022/03/31 06:44:13;;;;;;;1.25;1.25;;;;;;;;;;6149945;23;20029;-60
2022/03/31 06:46:38;;;;;;;3.25;2.88;;;;;;;;;;6150427;23;20001;-60
2022/03/31 06:49:04;;;;;;;9.02;6.25;;;;;;;;;;6149085;23;20013;-60
2022/03/31 06:51:29;;;;;;;2.40;2.30;;;;;;;;;;6150784;23;19994;-60
2022/03/31 06:53:57;;;;;;;2.25;2.08;;;;;;;;;;6149835;23;20000;-61
2022/03/31 06:56:23;;;;;;;4.97;3.85;;;;;;;;;;6150573;23;20020;-60
2022/03/31 06:58:48;;;;;;;5.82;4.63;;;;;;;;;;6149400;23;20072;-60
2022/03/31 07:01:14;;;;;;;1.85;1.75;;;;;;;;;;6150556;23;20018;-61
2022/03/31 07:03:39;;;;;;;1.05;1.00;;;;;;;;;;6149861;23;19998;-60
2022/03/31 07:06:06;;;;;;;7.65;4.78;;;;;;;;;;6150540;23;19998;-60
2022/03/31 07:08:33;;;;;;;5.35;4.80;;;;;;;;;;6150407;23;20144;-60
2022/03/31 07:10:59;;;;;;;10.80;5.97;;;;;;;;;;6150084;23;20001;-60
2022/03/31 07:13:24;;;;;;;0.00;0.00;;;;;;;;;;6150595;23;20323;-60
2022/03/31 07:15:49;;;;;;;6.13;5.47;;;;;;;;;;6149608;23;19998;-60
2022/03/31 07:18:15;;;;;;;4.07;3.75;;;;;;;;;;6149433;23;19997;-61
2022/03/31 07:20:40;;;;;;;2.38;2.25;;;;;;;;;;6150334;23;20002;-60
2022/03/31 07:23:06;;;;;;;0.22;0.22;;;;;;;;;;6150341;23;20012;-60
2022/03/31 07:25:31;;;;;;;0.88;0.80;;;;;;;;;;6150329;23;20002;-60
2022/03/31 07:27:56;;;;;;;0.63;0.57;;;;;;;;;;6149986;23;20097;-60
2022/03/31 07:30:22;;;;;;;1.55;1.02;;;;;;;;;;6151948;23;20044;-60
2022/03/31 07:32:52;;;;;;;0.65;0.65;;;;;;;;;;6152024;23;20001;-60
2022/03/31 07:35:18;;;;;;;0.93;0.93;;;;;;;;;;6151879;23;20084;-61
2022/03/31 07:37:44;;;;;;;6.47;3.15;;;;;;;;;;6151899;23;20419;-61
2022/03/31 07:40:09;;;;;;;8.07;5.57;;;;;;;;;;6151891;23;20060;-61
2022/03/31 07:42:35;;;;;;;0.65;0.65;;;;;;;;;;6151335;23;20073;-61
2022/03/31 07:45:00;;;;;;;2.05;1.95;;;;;;;;;;6152090;23;20001;-61
2022/03/31 07:47:25;;;;;;;13.05;4.07;;;;;;;;;;6151628;23;20514;-61
2022/03/31 07:49:52;;;;;;;3.00;2.17;;;;;;;;;;6151610;23;20442;-61
2022/03/31 07:52:18;;;;;;;10.60;4.85;;;;;;;;;;6152609;23;20017;-61
2022/03/31 07:54:43;;;;;;;8.75;5.50;;;;;;;;;;6151709;23;19997;-59
2022/03/31 07:57:09;;;;;;;4.57;3.22;;;;;;;;;;6152436;23;20060;-60
2022/03/31 07:59:34;;;;;;;5.85;2.08;;;;;;;;;;6152150;23;20043;-59
2022/03/31 08:02:00;;;;;;;0.98;0.98;;;;;;;;;;6151888;23;20032;-60
2022/03/31 08:04:25;;;;;;;9.23;5.97;;;;;;;;;;6152512;23;20005;-60
2022/03/31 08:06:50;;;;;;;1.80;1.80;;;;;;;;;;6151969;23;20005;-60
2022/03/31 08:09:20;;;;;;;4.70;4.40;;;;;;;;;;6152458;23;20056;-60
2022/03/31 08:11:46;;;;;;;3.50;3.20;;;;;;;;;;6152160;23;19994;-60
2022/03/31 08:14:11;;;;;;;2.17;2.08;;;;;;;;;;6126215;23;20001;-60
2022/03/31 08:16:36;;;;;;;2.45;1.85;;;;;;;;;;6152343;23;20435;-60
2022/03/31 08:19:02;;;;;;;7.80;4.72;;;;;;;;;;6151500;23;20032;-61
2022/03/31 08:21:27;;;;;;;9.10;6.82;;;;;;;;;;6151848;23;20032;-60
2022/03/31 08:23:53;;;;;;;12.00;6.60;;;;;;;;;;6151944;23;20492;-61
2022/03/31 08:26:18;;;;;;;2.40;1.27;;;;;;;;;;6152627;23;20072;-60
2022/03/31 08:28:45;;;;;;;4.15;3.85;;;;;;;;;;6152034;23;20018;-61
2022/03/31 08:31:10;;;;;;;0.00;0.00;;;;;;;;;;6148429;23;20005;-59
2022/03/31 08:33:35;;;;;;;6.95;5.10;;;;;;;;;;6152117;23;20036;-60
2022/03/31 08:36:00;;;;;;;4.13;1.77;;;;;;;;;;6151497;23;19997;-60
2022/03/31 08:38:26;;;;;;;1.30;0.85;;;;;;;;;;6152446;23;20323;-60
2022/03/31 08:40:52;;;;;;;3.40;2.30;;;;;;;;;;6151713;23;20340;-61
2022/03/31 08:43:19;;;;;;;3.67;3.38;;;;;;;;;;6151779;23;20040;-60
2022/03/31 08:45:51;;;;;;;11.60;6.38;;;;;;;;;;6151548;23;20024;-61
2022/03/31 08:48:16;;;;;;;0.68;0.68;;;;;;;;;;6152332;23;20423;-60
2022/03/31 08:50:42;;;;;;;0.00;0.00;;;;;;;;;;6151537;23;20001;-61
2022/03/31 08:53:07;;;;;;;2.60;1.05;;;;;;;;;;6125270;23;20024;-61
2022/03/31 08:55:32;;;;;;;1.00;0.85;;;;;;;;;;6152196;23;20000;-61
2022/03/31 08:57:58;;;;;;;2.47;2.38;;;;;;;;;;6151367;23;20004;-60
2022/03/31 09:00:24;;;;;;;2.92;1.30;;;;;;;;;;6125868;23;20001;-60
2022/03/31 09:02:55;;;;;;;3.90;3.65;;;;;;;;;;6151320;23;20005;-60
2022/03/31 09:05:20;;;;;;;5.22;2.70;;;;;;;;;;6152288;23;20077;-61
2022/03/31 09:07:56;;;;;;;1.42;1.42;;;;;;;;;;6149213;23;20434;-60
2022/03/31 09:10:26;;;;;;;5.68;5.28;;;;;;;;;;6150895;23;20029;-60
2022/03/31 09:12:51;;;;;;;4.95;4.57;;;;;;;;;;6151071;23;20423;-60
2022/03/31 09:15:16;;;;;;;3.42;3.17;;;;;;;;;;6151758;23;20001;-60
2022/03/31 09:17:42;;;;;;;4.68;4.30;;;;;;;;;;6152275;23;20016;-62
2022/03/31 09:20:07;;;;;;;3.92;3.50;;;;;;;;;;6150834;23;20025;-61
2022/03/31 09:22:43;;;;;;;5.85;4.50;;;;;;;;;;6147310;23;20044;-60
2022/03/31 09:25:09;;;;;;;4.07;3.08;;;;;;;;;;6150657;23;20005;-60
2022/03/31 09:27:34;;;;;;;5.50;5.03;;;;;;;;;;6151807;23;20084;-60
2022/03/31 09:30:06;;;;;;;4.00;3.70;;;;;;;;;;6150902;23;20017;-59
2022/03/31 09:32:31;;;;;;;0.73;0.73;;;;;;;;;;6151748;23;20005;-60
2022/03/31 09:35:03;;;;;;;4.28;2.85;;;;;;;;;;6150667;23;20005;-59
2022/03/31 09:37:34;;;;;;;5.85;4.00;;;;;;;;;;6151740;23;20427;-60
2022/03/31 09:39:59;;;;;;;7.28;3.97;;;;;;;;;;6151063;23;20331;-60
2022/03/31 09:42:25;;;;;;;7.78;3.58;;;;;;;;;;6151236;23;20029;-60
2022/03/31 09:44:57;;;;;;;8.00;4.57;;;;;;;;;;6151622;23;20107;-60
2022/03/31 09:47:22;;;;;;;4.07;3.83;;;;;;;;;;6151911;23;20005;-61
2022/03/31 09:49:54;;;;;;;3.03;2.70;;;;;;;;;;6151047;23;20004;-61
2022/03/31 09:52:20;;;;;;;3.47;2.70;;;;;;;;;;6151353;23;20471;-60
2022/03/31 09:54:47;;;;;;;5.50;4.07;;;;;;;;;;6151070;23;20040;-61
2022/03/31 09:57:13;;;;;;;6.63;3.75;;;;;;;;;;6151303;23;20372;-60
2022/03/31 09:59:39;;;;;;;7.20;6.50;;;;;;;;;;6151962;23;20005;-61
2022/03/31 10:02:05;;;;;;;3.58;3.38;;;;;;;;;;6151019;23;20083;-59
2022/03/31 10:04:31;;;;;;;0.08;0.08;;;;;;;;;;6151096;23;20482;-61
2022/03/31 10:06:57;;;;;;;12.15;7.93;;;;;;;;;;6150815;23;20446;-59
2022/03/31 10:09:23;;;;;;;2.83;2.63;;;;;;;;;;6151184;23;20856;-59
2022/03/31 10:11:50;;;;;;;5.53;5.03;;;;;;;;;;6150102;23;20021;-60
2022/03/31 10:14:15;;;;;;;0.70;0.70;;;;;;;;;;6150360;23;20014;-60
2022/03/31 10:16:44;;;;;;;6.03;3.92;;;;;;;;;;6150697;23;20109;-60
2022/03/31 10:19:10;;;;;;;5.10;4.38;;;;;;;;;;6150153;23;20375;-61
2022/03/31 10:21:35;;;;;;;2.88;2.67;;;;;;;;;;6150357;23;20002;-60
2022/03/31 10:26:55;;;;;;;2.35;2.20;;;;;;;;;;6151096;23;20009;-61
2022/03/31 10:29:20;;;;;;;3.13;2.92;;;;;;;;;;6150780;23;20372;-59
2022/03/31 10:31:45;;;;;;;4.80;4.32;;;;;;;;;;6150443;23;20031;-61
2022/03/31 10:34:12;;;;;;;7.78;5.25;;;;;;;;;;6151082;23;20005;-61
2022/03/31 10:36:47;;;;;;;4.80;4.30;;;;;;;;;;6151237;23;20002;-61
2022/03/31 10:39:17;;;;;;;3.13;1.88;;;;;;;;;;6150251;23;20139;-59
2022/03/31 10:41:44;;;;;;;3.90;2.88;;;;;;;;;;6151296;23;20005;-59
2022/03/31 10:44:12;;;;;;;6.85;3.25;;;;;;;;;;6150526;23;20048;-61
2022/03/31 10:46:38;;;;;;;1.58;1.48;;;;;;;;;;6151101;23;20001;-60
2022/03/31 10:49:07;;;;;;;2.20;1.98;;;;;;;;;;6149883;23;20001;-59
2022/03/31 10:51:43;;;;;;;2.72;2.50;;;;;;;;;;6151141;23;19998;-60
2022/03/31 10:54:10;;;;;;;3.08;2.88;;;;;;;;;;6150753;23;20006;-60
2022/03/31 10:56:36;;;;;;;0.00;0.00;;;;;;;;;;6150391;23;20049;-60
2022/03/31 10:59:03;;;;;;;3.03;2.80;;;;;;;;;;6150864;23;20376;-60
2022/03/31 11:01:35;;;;;;;1.63;1.60;;;;;;;;;;6151043;23;19997;-60
2022/03/31 11:04:02;;;;;;;3.13;2.85;;;;;;;;;;6150652;23;20558;-59
2022/03/31 11:06:29;;;;;;;0.15;0.15;;;;;;;;;;6149387;23;20412;-60
2022/03/31 11:08:54;;;;;;;3.70;3.40;;;;;;;;;;6149008;23;20005;-59
2022/03/31 11:11:20;;;;;;;3.08;2.88;;;;;;;;;;6150421;23;20304;-59
2022/03/31 11:13:46;;;;;;;1.83;1.20;;;;;;;;;;6150658;23;20021;-60
2022/03/31 11:16:11;;;;;;;22.25;7.70;;;;;;;;;;6150311;23;20032;-60
2022/03/31 11:18:36;;;;;;;6.50;2.20;;;;;;;;;;6150606;23;20371;-59
2022/03/31 11:21:02;;;;;;;1.25;1.15;;;;;;;;;;6149322;23;20471;-60
2022/03/31 11:23:29;;;;;;;8.15;7.28;;;;;;;;;;6150996;23;20002;-60
2022/03/31 11:25:55;;;;;;;4.65;3.83;;;;;;;;;;6150099;23;20305;-60
2022/03/31 11:28:20;;;;;;;0.00;0.00;;;;;;;;;;6150779;23;20379;-60
2022/03/31 11:30:46;;;;;;;2.45;2.17;;;;;;;;;;6150462;23;20053;-59
2022/03/31 11:33:13;;;;;;;3.72;2.63;;;;;;;;;;6150545;23;20012;-59
2022/03/31 11:35:38;;;;;;;5.95;5.03;;;;;;;;;;6150402;23;20328;-59
2022/03/31 11:38:05;;;;;;;3.20;2.45;;;;;;;;;;6149816;23;19997;-59
2022/03/31 11:40:32;;;;;;;2.45;0.65;;;;;;;;;;6150909;23;20006;-60
2022/03/31 11:42:58;;;;;;;1.95;0.98;;;;;;;;;;6150463;23;20001;-59
2022/03/31 11:45:24;;;;;;;8.18;5.50;;;;;;;;;;6150751;23;20008;-59
2022/03/31 11:47:55;;;;;;;0.00;0.00;;;;;;;;;;6150681;23;20008;-60
2022/03/31 11:50:20;;;;;;;2.58;2.33;;;;;;;;;;6150569;23;20341;-60
2022/03/31 11:52:48;;;;;;;0.68;0.68;;;;;;;;;;6148233;23;20037;-60
2022/03/31 11:55:13;;;;;;;1.63;1.20;;;;;;;;;;6150666;23;20101;-60
2022/03/31 11:57:38;;;;;;;0.63;0.63;;;;;;;;;;6150830;23;20033;-60
2022/03/31 12:00:08;;;;;;;3.28;3.13;;;;;;;;;;6150726;23;20024;-60
2022/03/31 12:02:33;;;;;;;3.75;2.75;;;;;;;;;;6151157;23;20009;-61
2022/03/31 12:04:58;;;;;;;2.97;2.78;;;;;;;;;;6149738;23;20036;-58
2022/03/31 12:07:24;;;;;;;0.82;0.50;;;;;;;;;;6150407;23;20454;-59
2022/03/31 12:09:51;;;;;;;4.70;2.33;;;;;;;;;;6150651;23;19993;-60
2022/03/31 12:12:17;;;;;;;2.08;1.98;;;;;;;;;;6150770;23;20004;-60
2022/03/31 12:14:52;;;;;;;3.72;3.53;;;;;;;;;;6150639;23;20011;-60
2022/03/31 12:17:18;;;;;;;2.80;2.70;;;;;;;;;;6152425;23;20021;-59
2022/03/31 12:19:43;;;;;;;1.23;0.57;;;;;;;;;;6152415;23;20309;-60
2022/03/31 12:22:09;;;;;;;2.05;1.95;;;;;;;;;;6152205;23;20001;-60
2022/03/31 12:24:44;;;;;;;1.90;1.90;;;;;;;;;;6152706;23;20001;-59
2022/03/31 12:27:13;;;;;;;5.25;3.33;;;;;;;;;;6152126;23;20036;-58
2022/03/31 12:29:38;;;;;;;6.88;4.20;;;;;;;;;;6152626;23;20474;-60
2022/03/31 12:32:07;;;;;;;0.22;0.22;;;;;;;;;;6151633;23;19997;-59
2022/03/31 12:34:34;;;;;;;1.02;1.02;;;;;;;;;;6150371;23;20005;-60
2022/03/31 12:36:59;;;;;;;0.90;0.90;;;;;;;;;;6151477;23;20002;-59
2022/03/31 12:39:25;;;;;;;18.95;4.80;;;;;;;;;;6152076;23;20091;-60
2022/03/31 12:41:51;;;;;;;3.22;2.95;;;;;;;;;;6150952;23;20002;-60
2022/03/31 12:44:20;;;;;;;0.43;0.43;;;;;;;;;;6151464;23;20005;-60
2022/03/31 12:46:53;;;;;;;6.60;5.95;;;;;;;;;;6151719;23;20133;-59
2022/03/31 12:49:22;;;;;;;1.95;1.85;;;;;;;;;;6151927;23;19997;-59
2022/03/31 12:51:48;;;;;;;;;;;;;;;;;;6152229;23;19998;-59
2022/03/31 12:54:19;;;;;;;1.88;0.43;;;;;;;;;;6151326;23;19983;-59
2022/03/31 12:56:48;;;;;;;0.28;0.28;;;;;;;;;;6151730;23;20225;-58
2022/03/31 12:59:17;;;;;;;2.47;2.38;;;;;;;;;;6151251;23;20424;-59
2022/03/31 13:01:53;;;;;;;0.00;0.00;;;;;;;;;;6152119;23;20471;-59
2022/03/31 13:04:18;;;;;;;1.27;1.25;;;;;;;;;;6151259;23;19998;-59
2022/03/31 13:06:43;;;;;;;1.27;1.17;;;;;;;;;;6151102;23;20000;-60
2022/03/31 13:09:08;;;;;;;1.83;0.93;;;;;;;;;;6151228;23;20001;-60
2022/03/31 13:11:34;;;;;;;4.57;4.25;;;;;;;;;;6151958;23;20020;-60
2022/03/31 13:13:59;;;;;;;0.00;0.00;;;;;;;;;;6151147;23;20446;-60
2022/03/31 13:16:25;;;;;;;1.70;1.67;;;;;;;;;;6151107;23;20076;-59
2022/03/31 13:18:50;;;;;;;2.83;1.25;;;;;;;;;;6147424;23;20005;-59
2022/03/31 13:21:15;;;;;;;4.15;3.78;;;;;;;;;;6149979;23;20487;-59
2022/03/31 13:23:40;;;;;;;5.55;2.15;;;;;;;;;;6151095;23;20001;-58
2022/03/31 13:26:08;;;;;;;1.77;1.67;;;;;;;;;;6150677;23;20008;-60
2022/03/31 13:28:36;;;;;;;1.02;0.50;;;;;;;;;;6150425;23;20462;-61
2022/03/31 13:31:01;;;;;;;4.63;1.17;;;;;;;;;;6123921;23;20041;-60
2022/03/31 13:33:26;;;;;;;3.80;3.50;;;;;;;;;;6150232;23;20009;-60
2022/03/31 13:35:51;;;;;;;1.20;1.10;;;;;;;;;;6151177;23;19997;-60
2022/03/31 13:38:17;;;;;;;0.50;0.50;;;;;;;;;;6150783;23;20006;-59
2022/03/31 13:40:43;;;;;;;3.15;1.40;;;;;;;;;;6150104;23;20025;-60
2022/03/31 13:43:09;;;;;;;0.75;0.75;;;;;;;;;;6148316;23;20041;-60
2022/03/31 13:45:34;;;;;;;1.00;0.88;;;;;;;;;;6149564;23;20002;-61
2022/03/31 13:48:00;;;;;;;0.00;0.00;;;;;;;;;;6148957;23;20442;-59
2022/03/31 13:50:26;;;;;;;1.48;1.35;;;;;;;;;;6149008;23;20073;-59
2022/03/31 13:55:36;;;;;;;0.08;0.08;;;;;;;;;;6105130;23;20029;-60
2022/03/31 14:03:30;;;;;;;0.00;0.00;;;;;;;;;;6151100;23;20011;-60
2022/03/31 14:05:55;;;;;;;1.20;1.10;;;;;;;;;;6150439;23;20682;-58
2022/03/31 14:08:20;;;;;;;1.45;1.17;;;;;;;;;;6150889;23;20012;-60
2022/03/31 14:10:45;;;;;;;3.40;2.92;;;;;;;;;;6150477;23;20029;-59
2022/03/31 14:13:11;;;;;;;1.27;1.17;;;;;;;;;;6150180;23;20009;-59
2022/03/31 14:15:38;;;;;;;2.30;1.55;;;;;;;;;;6150441;23;19998;-60
2022/03/31 14:18:05;;;;;;;2.67;2.47;;;;;;;;;;6150139;23;20005;-61
2022/03/31 14:20:31;;;;;;;2.65;2.47;;;;;;;;;;6150104;23;20006;-60
2022/03/31 14:22:57;;;;;;;1.08;1.08;;;;;;;;;;6147554;23;20002;-60
2022/03/31 14:25:22;;;;;;;0.40;0.40;;;;;;;;;;6149610;23;20005;-60
2022/03/31 14:27:47;;;;;;;0.10;0.10;;;;;;;;;;6150714;23;20028;-61
2022/03/31 14:30:13;;;;;;;2.55;2.35;;;;;;;;;;6122922;23;20485;-59
2022/03/31 14:32:41;;;;;;;0.73;0.73;;;;;;;;;;6148788;23;20019;-60
2022/03/31 14:35:06;;;;;;;1.90;1.80;;;;;;;;;;6149751;23;19997;-60
2022/03/31 14:37:32;;;;;;;1.95;1.45;;;;;;;;;;6150258;23;20008;-61
2022/03/31 14:39:57;;;;;;;1.13;1.08;;;;;;;;;;6150276;23;20080;-61
2022/03/31 14:42:22;;;;;;;0.22;0.22;;;;;;;;;;6150502;23;20327;-61
2022/03/31 14:44:47;;;;;;;0.20;0.20;;;;;;;;;;6150229;23;20088;-60
2022/03/31 14:47:13;;;;;;;2.35;2.17;;;;;;;;;;6149572;23;20416;-59
2022/03/31 14:49:38;;;;;;;0.17;0.17;;;;;;;;;;6150637;23;19997;-60